createdAt,value
2022-10-19T00:04:25.362Z,23.00
2022-10-19T00:09:30.312Z,23.10
2022-10-19T00:14:37.494Z,23.10
2022-10-19T00:19:41.257Z,23.10
2022-10-19T00:24:46.485Z,23.10
2022-10-19T00:29:50.548Z,23.10
2022-10-19T00:34:54.022Z,23.10
2022-10-19T00:39:58.963Z,23.10
2022-10-19T00:45:14.635Z,23.10
2022-10-19T00:50:18.474Z,23.00
2022-10-19T00:55:23.485Z,23.10
2022-10-19T01:00:27.384Z,23.00
2022-10-19T01:05:32.488Z,23.00
2022-10-19T01:10:51.047Z,23.00
2022-10-19T01:16:05.805Z,23.00
2022-10-19T01:21:24.022Z,23.00
2022-10-19T01:27:26.390Z,23.00
2022-10-19T01:32:51.963Z,23.00
2022-10-19T01:38:09.002Z,23.00
2022-10-19T01:43:24.635Z,23.00
2022-10-19T01:48:37.342Z,23.00
2022-10-19T01:53:49.194Z,23.00
2022-10-19T01:58:56.281Z,23.00
2022-10-19T02:04:02.526Z,23.00
2022-10-19T02:09:06.274Z,22.90
2022-10-19T02:14:15.850Z,22.90
2022-10-19T02:24:26.418Z,22.90
2022-10-19T02:29:30.160Z,22.90
2022-10-19T02:34:36.599Z,23.00
2022-10-19T02:39:41.357Z,22.90
2022-10-19T02:44:52.909Z,23.00
2022-10-19T02:49:58.038Z,23.00
2022-10-19T02:55:01.698Z,23.00
2022-10-19T03:00:08.808Z,23.00
2022-10-19T03:05:13.766Z,23.00
2022-10-19T03:10:17.571Z,23.00
2022-10-19T03:15:23.905Z,23.00
2022-10-19T03:20:28.811Z,22.90
2022-10-19T03:25:32.842Z,22.90
2022-10-19T03:30:36.583Z,22.90
2022-10-19T03:35:41.411Z,22.90
2022-10-19T03:40:44.983Z,22.90
2022-10-19T03:45:48.590Z,22.90
2022-10-19T03:51:02.145Z,22.90
2022-10-19T03:56:09.830Z,22.90
2022-10-19T04:01:17.146Z,22.80
2022-10-19T04:06:27.413Z,22.80
2022-10-19T04:11:33.589Z,22.90
2022-10-19T04:16:37.228Z,22.80
2022-10-19T04:21:43.799Z,22.80
2022-10-19T04:26:50.900Z,22.80
2022-10-19T04:31:54.743Z,22.80
2022-10-19T04:37:01.364Z,22.80
2022-10-19T04:42:05.058Z,22.80
2022-10-19T04:47:08.702Z,22.80
2022-10-19T04:52:13.732Z,22.80
2022-10-19T04:57:17.357Z,22.80
2022-10-19T05:02:21.014Z,22.80
2022-10-19T05:07:26.097Z,22.80
2022-10-19T05:12:29.539Z,22.80
2022-10-19T05:17:33.928Z,22.80
2022-10-19T05:22:39.349Z,22.80
2022-10-19T05:27:43.062Z,22.80
2022-10-19T05:32:46.739Z,22.80
2022-10-19T05:37:56.312Z,22.80
2022-10-19T05:43:00.045Z,22.80
2022-10-19T05:48:03.571Z,22.80
2022-10-19T05:53:08.760Z,22.80
2022-10-19T05:58:12.337Z,22.80
2022-10-19T06:03:17.394Z,22.80
2022-10-19T06:08:24.265Z,22.80
2022-10-19T06:13:28.120Z,22.80
2022-10-19T06:18:31.820Z,22.90
2022-10-19T06:23:37.834Z,22.80
2022-10-19T06:28:43.722Z,22.80
2022-10-19T06:33:49.442Z,22.90
2022-10-19T06:38:56.600Z,22.90
2022-10-19T06:44:00.527Z,22.90
2022-10-19T06:49:04.636Z,23.00
2022-10-19T06:54:09.757Z,22.90
2022-10-19T06:59:14.838Z,22.80
2022-10-19T07:04:18.694Z,22.70
2022-10-19T07:09:23.988Z,22.60
2022-10-19T07:14:28.528Z,22.50
2022-10-19T07:19:32.918Z,22.50
2022-10-19T07:24:38.644Z,22.50
2022-10-19T07:29:42.338Z,22.40
2022-10-19T07:34:46.001Z,22.40
2022-10-19T07:39:51.164Z,22.40
2022-10-19T07:44:54.806Z,22.30
2022-10-19T07:49:58.455Z,22.30
2022-10-19T07:55:04.043Z,22.40
2022-10-19T08:00:10.484Z,22.30
2022-10-19T08:05:17.629Z,22.30
2022-10-19T08:10:22.829Z,22.20
2022-10-19T08:15:26.828Z,22.20
2022-10-19T08:20:30.670Z,22.20
2022-10-19T08:25:35.701Z,22.20
2022-10-19T08:30:40.177Z,22.20
2022-10-19T08:35:43.794Z,22.20
2022-10-19T08:40:49.164Z,22.20
2022-10-19T08:45:59.828Z,22.20
2022-10-19T08:51:04.329Z,22.20
2022-10-19T08:56:49.463Z,22.20
2022-10-19T09:01:56.989Z,22.20
2022-10-19T09:07:26.509Z,22.20
2022-10-19T09:12:45.990Z,22.20
2022-10-19T09:17:49.889Z,22.20
2022-10-19T09:23:09.799Z,22.20
2022-10-19T09:28:41.109Z,22.20
2022-10-19T09:33:55.656Z,22.30
2022-10-19T09:38:59.355Z,22.30
2022-10-19T09:44:04.836Z,22.40
2022-10-19T09:49:08.641Z,22.40
2022-10-19T09:54:28.754Z,22.40
2022-10-19T09:59:37.988Z,22.40
2022-10-19T10:04:42.835Z,22.30
2022-10-19T10:09:46.843Z,22.40
2022-10-19T10:14:54.088Z,22.40
2022-10-19T10:20:20.991Z,22.40
2022-10-19T10:25:30.843Z,22.40
2022-10-19T10:30:39.109Z,22.40
2022-10-19T10:35:49.203Z,22.40
2022-10-19T10:40:57.165Z,22.40
2022-10-19T10:46:08.296Z,22.30
2022-10-19T10:51:24.538Z,22.30
2022-10-19T10:56:33.528Z,22.30
2022-10-19T11:01:43.994Z,22.30
2022-10-19T11:06:57.265Z,22.20
2022-10-19T11:12:10.094Z,22.20
2022-10-19T11:17:23.806Z,22.20
2022-10-19T11:22:36.745Z,22.20
2022-10-19T11:27:52.990Z,22.20
2022-10-19T11:33:09.095Z,22.20
2022-10-19T11:38:39.581Z,22.20
2022-10-19T11:44:06.327Z,22.30
2022-10-19T11:49:33.985Z,22.30
2022-10-19T11:54:59.345Z,22.40
2022-10-19T12:00:15.356Z,22.40
2022-10-19T12:05:33.839Z,22.40
2022-10-19T12:10:47.754Z,22.40
2022-10-19T12:15:54.896Z,22.40
2022-10-19T12:21:04.529Z,22.40
2022-10-19T12:26:12.903Z,22.40
2022-10-19T12:31:17.018Z,22.40
2022-10-19T12:36:41.167Z,22.40
2022-10-19T12:41:52.501Z,22.40
2022-10-19T12:47:02.331Z,22.40
2022-10-19T12:52:09.123Z,22.40
2022-10-19T12:57:32.132Z,22.40
2022-10-19T13:02:38.120Z,22.50
2022-10-19T13:07:43.324Z,22.40
2022-10-19T13:12:49.249Z,22.50
2022-10-19T13:17:53.719Z,22.50
2022-10-19T13:23:42.909Z,22.40
2022-10-19T13:28:55.080Z,22.50
2022-10-19T13:33:59.703Z,22.50
2022-10-19T13:39:21.010Z,22.50
2022-10-19T13:44:35.484Z,22.50
2022-10-19T13:50:23.843Z,22.50
2022-10-19T13:56:00.757Z,22.50
2022-10-19T14:01:28.698Z,22.50
2022-10-19T14:06:41.345Z,22.50
2022-10-19T14:11:50.003Z,22.50
2022-10-19T14:17:01.180Z,22.60
2022-10-19T14:22:25.823Z,22.60
2022-10-19T14:27:32.827Z,22.60
2022-10-19T14:32:36.875Z,22.60
2022-10-19T14:37:44.083Z,22.60
2022-10-19T14:42:50.156Z,22.60
2022-10-19T14:48:01.239Z,22.60
2022-10-19T14:53:26.664Z,22.70
2022-10-19T14:58:41.583Z,22.60
2022-10-19T15:03:47.590Z,22.60
2022-10-19T15:08:55.271Z,22.60
2022-10-19T15:14:07.086Z,22.60
2022-10-19T15:19:27.736Z,22.60
2022-10-19T15:24:31.318Z,22.60
2022-10-19T15:29:36.534Z,22.60
2022-10-19T15:34:43.058Z,22.50
2022-10-19T15:39:46.793Z,22.60
2022-10-19T15:44:51.954Z,22.50
2022-10-19T15:50:01.844Z,22.50
2022-10-19T15:55:06.444Z,22.50
2022-10-19T16:00:17.650Z,22.50
2022-10-19T16:05:21.258Z,22.50
2022-10-19T16:10:27.965Z,22.50
2022-10-19T16:15:33.578Z,22.40
2022-10-19T16:20:38.767Z,22.40
2022-10-19T16:25:42.287Z,22.40
2022-10-19T16:30:47.614Z,22.30
2022-10-19T16:35:51.334Z,22.30
2022-10-19T16:40:55.220Z,22.30
2022-10-19T16:46:00.347Z,22.30
2022-10-19T16:51:37.392Z,22.30
2022-10-19T16:56:46.414Z,22.30
2022-10-19T17:01:51.823Z,22.30
2022-10-19T17:06:57.866Z,22.30
2022-10-19T17:12:01.560Z,22.20
2022-10-19T17:17:06.484Z,22.20
2022-10-19T17:22:10.026Z,22.20
2022-10-19T17:27:13.652Z,22.20
2022-10-19T17:32:18.671Z,22.20
2022-10-19T17:37:22.094Z,22.20
2022-10-19T17:42:25.834Z,22.20
2022-10-19T17:47:31.365Z,22.20
2022-10-19T17:52:34.988Z,22.20
2022-10-19T17:57:38.552Z,22.20
2022-10-19T18:02:46.403Z,22.10
2022-10-19T18:07:53.097Z,22.20
2022-10-19T18:12:56.679Z,22.20
2022-10-19T18:18:02.016Z,22.40
2022-10-19T18:23:05.662Z,22.90
2022-10-19T18:28:09.177Z,23.30
2022-10-19T18:33:14.534Z,23.40
2022-10-19T18:38:18.192Z,23.50
2022-10-19T18:43:21.659Z,23.50
2022-10-19T18:48:30.082Z,23.50
2022-10-19T18:53:34.917Z,23.50
2022-10-19T18:58:39.246Z,23.50
2022-10-19T19:03:47.410Z,23.50
2022-10-19T19:08:51.314Z,23.50
2022-10-19T19:13:57.865Z,23.40
2022-10-19T19:19:03.052Z,23.40
2022-10-19T19:24:08.666Z,23.40
2022-10-19T19:29:12.474Z,23.30
2022-10-19T19:34:17.541Z,23.30
2022-10-19T19:39:22.544Z,23.30
2022-10-19T19:44:29.599Z,23.30
2022-10-19T19:49:34.461Z,23.20
2022-10-19T19:54:38.149Z,23.20
2022-10-19T19:59:41.754Z,23.10
2022-10-19T20:04:46.787Z,23.10
2022-10-19T20:09:50.363Z,23.10
2022-10-19T20:14:54.401Z,23.00
2022-10-19T20:19:59.238Z,23.10
2022-10-19T20:25:02.942Z,23.10
2022-10-19T20:30:08.799Z,23.10
2022-10-19T20:35:13.653Z,23.10
2022-10-19T20:40:17.711Z,23.10
2022-10-19T20:45:22.946Z,23.10
2022-10-19T20:50:27.841Z,23.10
2022-10-19T20:55:31.319Z,23.10
2022-10-19T21:00:35.044Z,23.10
2022-10-19T21:05:40.873Z,23.10
2022-10-19T21:10:44.562Z,23.00
2022-10-19T21:15:48.078Z,23.00
2022-10-19T21:20:52.943Z,23.00
2022-10-19T21:25:58.157Z,23.00
2022-10-19T21:31:05.258Z,23.00
2022-10-19T21:36:12.311Z,23.00
2022-10-19T21:41:23.836Z,22.90
2022-10-19T21:46:30.258Z,22.90
2022-10-19T21:51:40.770Z,22.90
2022-10-19T21:56:45.763Z,22.90
2022-10-19T22:01:49.432Z,22.90
2022-10-19T22:06:59.584Z,22.90
2022-10-19T22:12:03.204Z,22.90
2022-10-19T22:17:06.765Z,22.90
2022-10-19T22:22:11.689Z,22.90
2022-10-19T22:27:15.238Z,22.90
2022-10-19T22:32:18.845Z,22.90
2022-10-19T22:37:23.808Z,22.90
2022-10-19T22:43:59.663Z,23.00
2022-10-19T22:49:22.101Z,22.90
2022-10-19T22:54:27.139Z,22.90
2022-10-19T22:59:30.688Z,22.90
2022-10-19T23:04:34.931Z,22.90
2022-10-19T23:09:41.079Z,22.80
2022-10-19T23:14:44.620Z,22.80
2022-10-19T23:19:48.452Z,22.80
2022-10-19T23:24:53.686Z,22.80
2022-10-19T23:29:57.315Z,22.90
2022-10-19T23:35:00.882Z,22.80
2022-10-19T23:40:07.374Z,22.80
2022-10-19T23:45:13.161Z,22.90
2022-10-19T23:50:16.953Z,22.80
2022-10-19T23:55:21.863Z,22.80
